METAR Data
IDs: Format: Raw Decoded Include TAF

Data at: 0008 UTC 19 Oct 2019

METAR for:K6B9 (Skaneateles Arpt, NY, US)
Text:K6B9 182355Z AUTO 00000KT 8SM SCT033 02/02 A3002 RMK AO2
Temperature: 2.0°C ( 36°F)
Dewpoint: 2.0°C ( 36°F) [RH = 100%]
Pressure (altimeter):30.02 inches Hg (1016.7 mb)
Winds:calm
Visibility: 8 sm ( 13 km)
Ceiling:at least 12,000 feet AGL
Clouds: scattered clouds at 3300 feet AGL
QC Flag:automated observation with no human augmentation
Text:K6B9 182335Z AUTO 00000KT 10SM CLR 03/02 A3002 RMK AO2
Temperature: 3.0°C ( 37°F)
Dewpoint: 2.0°C ( 36°F) [RH = 93%]
Pressure (altimeter):30.02 inches Hg (1016.7 mb)
Winds:calm
Visibility:10 or more sm (16+ km)
Ceiling:at least 12,000 feet AGL
Clouds:sky clear below 12,000 feet AGL
QC Flag:automated observation with no human augmentation
Text:K6B9 182315Z AUTO 00000KT 10SM FEW032 03/03 A3001 RMK AO2
Temperature: 3.0°C ( 37°F)
Dewpoint: 3.0°C ( 37°F) [RH = 100%]
Pressure (altimeter):30.01 inches Hg (1016.3 mb)
Winds:calm
Visibility:10 or more sm (16+ km)
Ceiling:at least 12,000 feet AGL
Clouds: few clouds at 3200 feet AGL
QC Flag:automated observation with no human augmentation
Text:K6B9 182255Z AUTO 00000KT 10SM FEW032 04/03 A3000 RMK AO2
Temperature: 4.0°C ( 39°F)
Dewpoint: 3.0°C ( 37°F) [RH = 93%]
Pressure (altimeter):30.00 inches Hg (1016.0 mb)
Winds:calm
Visibility:10 or more sm (16+ km)
Ceiling:at least 12,000 feet AGL
Clouds: few clouds at 3200 feet AGL
QC Flag:automated observation with no human augmentation
Text:K6B9 182235Z AUTO 00000KT 10SM CLR 05/03 A3000 RMK AO2
Temperature: 5.0°C ( 41°F)
Dewpoint: 3.0°C ( 37°F) [RH = 87%]
Pressure (altimeter):30.00 inches Hg (1016.0 mb)
Winds:calm
Visibility:10 or more sm (16+ km)
Ceiling:at least 12,000 feet AGL
Clouds:sky clear below 12,000 feet AGL
QC Flag:automated observation with no human augmentation
Text:K6B9 182215Z AUTO 00000KT 10SM FEW031 06/03 A3000 RMK AO2
Temperature: 6.0°C ( 43°F)
Dewpoint: 3.0°C ( 37°F) [RH = 81%]
Pressure (altimeter):30.00 inches Hg (1016.0 mb)
Winds:calm
Visibility:10 or more sm (16+ km)
Ceiling:at least 12,000 feet AGL
Clouds: few clouds at 3100 feet AGL
QC Flag:automated observation with no human augmentation
Text:K6B9 182155Z AUTO 31004KT 10SM BKN032 07/03 A3000 RMK AO2
Temperature: 7.0°C ( 45°F)
Dewpoint: 3.0°C ( 37°F) [RH = 76%]
Pressure (altimeter):30.00 inches Hg (1016.0 mb)
Winds:from the NW (310 degrees) at 5 MPH (4 knots; 2.1 m/s)
Visibility:10 or more sm (16+ km)
Ceiling:3200 feet AGL
Clouds: broken clouds at 3200 feet AGL
QC Flag:automated observation with no human augmentation
Text:K6B9 182135Z AUTO VRB04KT 10SM BKN032 07/03 A3000 RMK AO2
Temperature: 7.0°C ( 45°F)
Dewpoint: 3.0°C ( 37°F) [RH = 76%]
Pressure (altimeter):30.00 inches Hg (1016.0 mb)
Winds:variable direction winds at 5 MPH (4 knots; 2.1 m/s)
Visibility:10 or more sm (16+ km)
Ceiling:3200 feet AGL
Clouds: broken clouds at 3200 feet AGL
QC Flag:automated observation with no human augmentation
Text:K6B9 182115Z AUTO 32005KT 10SM FEW025 SCT033 07/03 A2999 RMK AO2
Temperature: 7.0°C ( 45°F)
Dewpoint: 3.0°C ( 37°F) [RH = 76%]
Pressure (altimeter):29.99 inches Hg (1015.7 mb)
Winds:from the NW (320 degrees) at 6 MPH (5 knots; 2.6 m/s)
Visibility:10 or more sm (16+ km)
Ceiling:at least 12,000 feet AGL
Clouds: few clouds at 2500 feet AGL, scattered clouds at 3300 feet AGL
QC Flag:automated observation with no human augmentation
Text:K6B9 182055Z AUTO VRB03KT 10SM BKN032 07/03 A2999 RMK AO2
Temperature: 7.0°C ( 45°F)
Dewpoint: 3.0°C ( 37°F) [RH = 76%]
Pressure (altimeter):29.99 inches Hg (1015.7 mb)
Winds:variable direction winds at 3 MPH (3 knots; 1.5 m/s)
Visibility:10 or more sm (16+ km)
Ceiling:3200 feet AGL
Clouds: broken clouds at 3200 feet AGL
QC Flag:automated observation with no human augmentation
Text:K6B9 182035Z AUTO VRB05KT 10SM SCT025 BKN031 08/03 A2998 RMK AO2
Temperature: 8.0°C ( 46°F)
Dewpoint: 3.0°C ( 37°F) [RH = 71%]
Pressure (altimeter):29.98 inches Hg (1015.3 mb)
Winds:variable direction winds at 6 MPH (5 knots; 2.6 m/s)
Visibility:10 or more sm (16+ km)
Ceiling:3100 feet AGL
Clouds: scattered clouds at 2500 feet AGL, broken clouds at 3100 feet AGL
QC Flag:automated observation with no human augmentation
Text:K6B9 182015Z AUTO 30005G12KT 10SM BKN025 OVC030 08/03 A2999 RMK AO2
Temperature: 8.0°C ( 46°F)
Dewpoint: 3.0°C ( 37°F) [RH = 71%]
Pressure (altimeter):29.99 inches Hg (1015.7 mb)
Winds:from the WNW (300 degrees) at 6 MPH (5 knots; 2.6 m/s) gusting to 14 MPH (12 knots; 6.2 m/s)
Visibility:10 or more sm (16+ km)
Ceiling:2500 feet AGL
Clouds: broken clouds at 2500 feet AGL, overcast cloud deck at 3000 feet AGL
QC Flag:automated observation with no human augmentation
Text:K6B9 181955Z AUTO VRB06G12KT 10SM OVC029 08/03 A2998 RMK AO2
Temperature: 8.0°C ( 46°F)
Dewpoint: 3.0°C ( 37°F) [RH = 71%]
Pressure (altimeter):29.98 inches Hg (1015.3 mb)
Winds:variable direction winds at 7 MPH (6 knots; 3.1 m/s) gusting to 14 MPH (12 knots; 6.2 m/s)
Visibility:10 or more sm (16+ km)
Ceiling:2900 feet AGL
Clouds: overcast cloud deck at 2900 feet AGL
QC Flag:automated observation with no human augmentation
Text:K6B9 181935Z AUTO VRB03KT 10SM OVC026 07/04 A2997 RMK AO2
Temperature: 7.0°C ( 45°F)
Dewpoint: 4.0°C ( 39°F) [RH = 81%]
Pressure (altimeter):29.97 inches Hg (1015.0 mb)
Winds:variable direction winds at 3 MPH (3 knots; 1.5 m/s)
Visibility:10 or more sm (16+ km)
Ceiling:2600 feet AGL
Clouds: overcast cloud deck at 2600 feet AGL
QC Flag:automated observation with no human augmentation
Text:K6B9 181915Z AUTO VRB05G10KT 10SM BKN022 OVC027 07/03 A2997 RMK AO2
Temperature: 7.0°C ( 45°F)
Dewpoint: 3.0°C ( 37°F) [RH = 76%]
Pressure (altimeter):29.97 inches Hg (1015.0 mb)
Winds:variable direction winds at 6 MPH (5 knots; 2.6 m/s) gusting to 12 MPH (10 knots; 5.1 m/s)
Visibility:10 or more sm (16+ km)
Ceiling:2200 feet AGL
Clouds: broken clouds at 2200 feet AGL, overcast cloud deck at 2700 feet AGL
QC Flag:automated observation with no human augmentation
Text:K6B9 181855Z AUTO VRB03KT 10SM BKN023 OVC028 07/04 A2997 RMK AO2
Temperature: 7.0°C ( 45°F)
Dewpoint: 4.0°C ( 39°F) [RH = 81%]
Pressure (altimeter):29.97 inches Hg (1015.0 mb)
Winds:variable direction winds at 3 MPH (3 knots; 1.5 m/s)
Visibility:10 or more sm (16+ km)
Ceiling:2300 feet AGL
Clouds: broken clouds at 2300 feet AGL, overcast cloud deck at 2800 feet AGL
QC Flag:automated observation with no human augmentation
Text:K6B9 181835Z AUTO VRB06G12KT 260V350 10SM OVC022 07/03 A2997 RMK AO2
Temperature: 7.0°C ( 45°F)
Dewpoint: 3.0°C ( 37°F) [RH = 76%]
Pressure (altimeter):29.97 inches Hg (1015.0 mb)
Winds:variable direction winds at 7 MPH (6 knots; 3.1 m/s) gusting to 14 MPH (12 knots; 6.2 m/s)
Visibility:10 or more sm (16+ km)
Ceiling:2200 feet AGL
Clouds: overcast cloud deck at 2200 feet AGL
QC Flag:automated observation with no human augmentation
Text:K6B9 181815Z AUTO VRB05G12KT 10SM BKN021 OVC025 06/03 A2997 RMK AO2
Temperature: 6.0°C ( 43°F)
Dewpoint: 3.0°C ( 37°F) [RH = 81%]
Pressure (altimeter):29.97 inches Hg (1015.0 mb)
Winds:variable direction winds at 6 MPH (5 knots; 2.6 m/s) gusting to 14 MPH (12 knots; 6.2 m/s)
Visibility:10 or more sm (16+ km)
Ceiling:2100 feet AGL
Clouds: broken clouds at 2100 feet AGL, overcast cloud deck at 2500 feet AGL
QC Flag:automated observation with no human augmentation
Text:K6B9 181755Z AUTO VRB05G15KT 10SM OVC024 06/03 A2996 RMK AO2
Temperature: 6.0°C ( 43°F)
Dewpoint: 3.0°C ( 37°F) [RH = 81%]
Pressure (altimeter):29.96 inches Hg (1014.6 mb)
Winds:variable direction winds at 6 MPH (5 knots; 2.6 m/s) gusting to 17 MPH (15 knots; 7.7 m/s)
Visibility:10 or more sm (16+ km)
Ceiling:2400 feet AGL
Clouds: overcast cloud deck at 2400 feet AGL
QC Flag:automated observation with no human augmentation
Text:K6B9 181735Z AUTO VRB05G16KT 10SM BKN018 OVC023 06/04 A2996 RMK AO2
Temperature: 6.0°C ( 43°F)
Dewpoint: 4.0°C ( 39°F) [RH = 87%]
Pressure (altimeter):29.96 inches Hg (1014.6 mb)
Winds:variable direction winds at 6 MPH (5 knots; 2.6 m/s) gusting to 18 MPH (16 knots; 8.2 m/s)
Visibility:10 or more sm (16+ km)
Ceiling:1800 feet AGL
Clouds: broken clouds at 1800 feet AGL, overcast cloud deck at 2300 feet AGL
QC Flag:automated observation with no human augmentation
Text:K6B9 181715Z AUTO VRB05G14KT 10SM OVC017 06/04 A2996 RMK AO2
Temperature: 6.0°C ( 43°F)
Dewpoint: 4.0°C ( 39°F) [RH = 87%]
Pressure (altimeter):29.96 inches Hg (1014.6 mb)
Winds:variable direction winds at 6 MPH (5 knots; 2.6 m/s) gusting to 16 MPH (14 knots; 7.2 m/s)
Visibility:10 or more sm (16+ km)
Ceiling:1700 feet AGL
Clouds: overcast cloud deck at 1700 feet AGL
QC Flag:automated observation with no human augmentation
Text:K6B9 181655Z AUTO VRB05KT 10SM OVC018 06/04 A2995 RMK AO2
Temperature: 6.0°C ( 43°F)
Dewpoint: 4.0°C ( 39°F) [RH = 87%]
Pressure (altimeter):29.95 inches Hg (1014.3 mb)
Winds:variable direction winds at 6 MPH (5 knots; 2.6 m/s)
Visibility:10 or more sm (16+ km)
Ceiling:1800 feet AGL
Clouds: overcast cloud deck at 1800 feet AGL
QC Flag:automated observation with no human augmentation
Text:K6B9 181635Z AUTO VRB05G11KT 10SM OVC019 06/04 A2995 RMK AO2
Temperature: 6.0°C ( 43°F)
Dewpoint: 4.0°C ( 39°F) [RH = 87%]
Pressure (altimeter):29.95 inches Hg (1014.3 mb)
Winds:variable direction winds at 6 MPH (5 knots; 2.6 m/s) gusting to 13 MPH (11 knots; 5.7 m/s)
Visibility:10 or more sm (16+ km)
Ceiling:1900 feet AGL
Clouds: overcast cloud deck at 1900 feet AGL
QC Flag:automated observation with no human augmentation
Text:K6B9 181615Z AUTO VRB05G16KT 10SM BKN017 OVC024 06/03 A2995 RMK AO2
Temperature: 6.0°C ( 43°F)
Dewpoint: 3.0°C ( 37°F) [RH = 81%]
Pressure (altimeter):29.95 inches Hg (1014.3 mb)
Winds:variable direction winds at 6 MPH (5 knots; 2.6 m/s) gusting to 18 MPH (16 knots; 8.2 m/s)
Visibility:10 or more sm (16+ km)
Ceiling:1700 feet AGL
Clouds: broken clouds at 1700 feet AGL, overcast cloud deck at 2400 feet AGL
QC Flag:automated observation with no human augmentation
Text:K6B9 181555Z AUTO 30007G16KT 240V010 10SM BKN020 OVC025 06/04 A2995 RMK AO2
Temperature: 6.0°C ( 43°F)
Dewpoint: 4.0°C ( 39°F) [RH = 87%]
Pressure (altimeter):29.95 inches Hg (1014.3 mb)
Winds:from the WNW (300 degrees) at 8 MPH (7 knots; 3.6 m/s) gusting to 18 MPH (16 knots; 8.2 m/s)
Visibility:10 or more sm (16+ km)
Ceiling:2000 feet AGL
Clouds: broken clouds at 2000 feet AGL, overcast cloud deck at 2500 feet AGL
QC Flag:automated observation with no human augmentation
Text:K6B9 181535Z AUTO VRB04G13KT 10SM OVC017 06/04 A2995 RMK AO2
Temperature: 6.0°C ( 43°F)
Dewpoint: 4.0°C ( 39°F) [RH = 87%]
Pressure (altimeter):29.95 inches Hg (1014.3 mb)
Winds:variable direction winds at 5 MPH (4 knots; 2.1 m/s) gusting to 15 MPH (13 knots; 6.7 m/s)
Visibility:10 or more sm (16+ km)
Ceiling:1700 feet AGL
Clouds: overcast cloud deck at 1700 feet AGL
QC Flag:automated observation with no human augmentation
Text:K6B9 181515Z AUTO VRB04KT 10SM OVC015 06/05 A2994 RMK AO2
Temperature: 6.0°C ( 43°F)
Dewpoint: 5.0°C ( 41°F) [RH = 93%]
Pressure (altimeter):29.94 inches Hg (1014.0 mb)
Winds:variable direction winds at 5 MPH (4 knots; 2.1 m/s)
Visibility:10 or more sm (16+ km)
Ceiling:1500 feet AGL
Clouds: overcast cloud deck at 1500 feet AGL
QC Flag:automated observation with no human augmentation
Text:K6B9 181455Z AUTO VRB06G14KT 10SM OVC016 06/04 A2993 RMK AO2
Temperature: 6.0°C ( 43°F)
Dewpoint: 4.0°C ( 39°F) [RH = 87%]
Pressure (altimeter):29.93 inches Hg (1013.6 mb)
Winds:variable direction winds at 7 MPH (6 knots; 3.1 m/s) gusting to 16 MPH (14 knots; 7.2 m/s)
Visibility:10 or more sm (16+ km)
Ceiling:1600 feet AGL
Clouds: overcast cloud deck at 1600 feet AGL
QC Flag:automated observation with no human augmentation
Text:K6B9 181435Z AUTO 28007G13KT 250V310 10SM OVC019 06/05 A2993 RMK AO2
Temperature: 6.0°C ( 43°F)
Dewpoint: 5.0°C ( 41°F) [RH = 93%]
Pressure (altimeter):29.93 inches Hg (1013.6 mb)
Winds:from the W (280 degrees) at 8 MPH (7 knots; 3.6 m/s) gusting to 15 MPH (13 knots; 6.7 m/s)
Visibility:10 or more sm (16+ km)
Ceiling:1900 feet AGL
Clouds: overcast cloud deck at 1900 feet AGL
QC Flag:automated observation with no human augmentation
Text:K6B9 181415Z AUTO 27006G12KT 10SM FEW011 BKN018 OVC022 06/05 A2992 RMK AO2
Temperature: 6.0°C ( 43°F)
Dewpoint: 5.0°C ( 41°F) [RH = 93%]
Pressure (altimeter):29.92 inches Hg (1013.3 mb)
Winds:from the W (270 degrees) at 7 MPH (6 knots; 3.1 m/s) gusting to 14 MPH (12 knots; 6.2 m/s)
Visibility:10 or more sm (16+ km)
Ceiling:1800 feet AGL
Clouds: few clouds at 1100 feet AGL, broken clouds at 1800 feet AGL, overcast cloud deck at 2200 feet AGL
QC Flag:automated observation with no human augmentation
Text:K6B9 181355Z AUTO 28005G14KT 10SM FEW009 OVC016 05/05 A2991 RMK AO2
Temperature: 5.0°C ( 41°F)
Dewpoint: 5.0°C ( 41°F) [RH = 100%]
Pressure (altimeter):29.91 inches Hg (1013.0 mb)
Winds:from the W (280 degrees) at 6 MPH (5 knots; 2.6 m/s) gusting to 16 MPH (14 knots; 7.2 m/s)
Visibility:10 or more sm (16+ km)
Ceiling:1600 feet AGL
Clouds: few clouds at 900 feet AGL, overcast cloud deck at 1600 feet AGL
QC Flag:automated observation with no human augmentation
Text:K6B9 181335Z AUTO 28006KT 6SM BR SCT009 BKN015 OVC020 06/05 A2991 RMK AO2
Temperature: 6.0°C ( 43°F)
Dewpoint: 5.0°C ( 41°F) [RH = 93%]
Pressure (altimeter):29.91 inches Hg (1013.0 mb)
Winds:from the W (280 degrees) at 7 MPH (6 knots; 3.1 m/s)
Visibility: 6 sm ( 10 km)
Ceiling:1500 feet AGL
Clouds: scattered clouds at 900 feet AGL, broken clouds at 1500 feet AGL, overcast cloud deck at 2000 feet AGL
Weather:BR (mist)
QC Flag:automated observation with no human augmentation
Text:K6B9 181315Z AUTO VRB06G13KT 4SM BR SCT007 BKN015 OVC020 05/05 A2990 RMK AO2
Temperature: 5.0°C ( 41°F)
Dewpoint: 5.0°C ( 41°F) [RH = 100%]
Pressure (altimeter):29.90 inches Hg (1012.6 mb)
Winds:variable direction winds at 7 MPH (6 knots; 3.1 m/s) gusting to 15 MPH (13 knots; 6.7 m/s)
Visibility: 4 sm ( 6 km)
Ceiling:1500 feet AGL
Clouds: scattered clouds at 700 feet AGL, broken clouds at 1500 feet AGL, overcast cloud deck at 2000 feet AGL
Weather:BR (mist)
QC Flag:automated observation with no human augmentation
Text:K6B9 181255Z AUTO VRB06G13KT 5SM BR BKN005 OVC009 05/05 A2990 RMK AO2 P0002
Temperature: 5.0°C ( 41°F)
Dewpoint: 5.0°C ( 41°F) [RH = 100%]
Pressure (altimeter):29.90 inches Hg (1012.6 mb)
Winds:variable direction winds at 7 MPH (6 knots; 3.1 m/s) gusting to 15 MPH (13 knots; 6.7 m/s)
Visibility: 5 sm ( 8 km)
Ceiling:500 feet AGL
Clouds: broken clouds at 500 feet AGL, overcast cloud deck at 900 feet AGL
Weather:BR (mist)
QC Flag:automated observation with no human augmentation
Text:K6B9 181235Z AUTO VRB05G11KT 1 3/4SM -UP OVC004 05/05 A2990 RMK AO2
Temperature: 5.0°C ( 41°F)
Dewpoint: 5.0°C ( 41°F) [RH = 100%]
Pressure (altimeter):29.90 inches Hg (1012.6 mb)
Winds:variable direction winds at 6 MPH (5 knots; 2.6 m/s) gusting to 13 MPH (11 knots; 5.7 m/s)
Visibility: 1.75 sm ( 2.82 km)
Ceiling:400 feet AGL
Clouds: overcast cloud deck at 400 feet AGL
Weather:UP (unknown precipitation)
QC Flag:automated observation with no human augmentation
Text:K6B9 181215Z AUTO VRB06G12KT 3SM BR OVC004 05/05 A2989 RMK AO2
Temperature: 5.0°C ( 41°F)
Dewpoint: 5.0°C ( 41°F) [RH = 100%]
Pressure (altimeter):29.89 inches Hg (1012.3 mb)
Winds:variable direction winds at 7 MPH (6 knots; 3.1 m/s) gusting to 14 MPH (12 knots; 6.2 m/s)
Visibility: 3 sm ( 5 km)
Ceiling:400 feet AGL
Clouds: overcast cloud deck at 400 feet AGL
Weather:BR (mist)
QC Flag:automated observation with no human augmentation